PWSweather.com
Personal Weather Stations
Station Observations
CWOPDW0920
Cole Harbour, Halifax, NS

Cole HarbourHalifax, NS

Lat: 44.679792, Lon: -63.465421

Elevation: 112

Station Type: WMR968

http://www.HRMWeather.com

High Low Average
Temperature 58.2°F14.6°C 47.5°F8.6°C 51.2°F10.7°C
Dew Point 55.3°F12.9°C 45.3°F7.4°C 49.9°F9.9°C
Winds 12.0 mph 19.3 kmh Calm Calm 6.0 mph S9.7 kmh S
Wind Gusts 18.0 mph29.0 kmh 5.0 mph8.0 kmh 10.0 mph16.1 kmh
Humidity 100% 88% 96%
Pressure 29.97 in1014.9 mb 29.86 in1011.2 mb -
Precipitation 0.00 in0.0 mm - -
Hour Temp Dew Point Humidity Winds Wind Gusts Pressure Precip Precip Rate Daily Precip Total
12:00 AM 47.5°F8.6°C 45.3°F7.4°C 92% 5.0 mph SSW8.0 kmh SSW 7.0 mph11.3 kmh 29.97 in1014.9 mb 0.00 in0.0 mm 0.00 in/hr0.0 mm/hr 0.00 in0.0 mm
01:00 AM 47.7°F8.7°C 46.3°F7.9°C 95% 5.0 mph S8.0 kmh S 9.0 mph14.5 kmh 29.94 in1013.9 mb 0.00 in0.0 mm 0.00 in/hr0.0 mm/hr 0.00 in0.0 mm
02:00 AM 47.7°F8.7°C 46.9°F8.3°C 97% 6.0 mph SSE9.7 kmh SSE 8.0 mph12.9 kmh 29.91 in1012.9 mb 0.00 in0.0 mm 0.00 in/hr0.0 mm/hr 0.00 in0.0 mm
04:00 AM 47.8°F8.8°C 47.8°F8.8°C 100% 6.0 mph SE9.7 kmh SE 10.0 mph16.1 kmh 29.88 in1011.9 mb 0.00 in0.0 mm 0.00 in/hr0.0 mm/hr 0.00 in0.0 mm
05:00 AM 47.7°F8.7°C 47.7°F8.7°C 100% 3.0 mph SE4.8 kmh SE 5.0 mph8.0 kmh 29.88 in1011.9 mb 0.00 in0.0 mm 0.00 in/hr0.0 mm/hr 0.00 in0.0 mm
06:00 AM 48.0°F8.9°C 48.0°F8.9°C 100% Calm Calm 5.0 mph8.0 kmh 29.88 in1011.9 mb 0.00 in0.0 mm 0.00 in/hr0.0 mm/hr 0.00 in0.0 mm
07:00 AM 48.9°F9.4°C 48.9°F9.4°C 100% Calm Calm 5.0 mph8.0 kmh 29.88 in1011.9 mb 0.00 in0.0 mm 0.00 in/hr0.0 mm/hr 0.00 in0.0 mm
08:00 AM 49.8°F9.9°C 49.8°F9.9°C 100% 8.0 mph S12.9 kmh S 10.0 mph16.1 kmh 29.86 in1011.2 mb 0.08 in2.0 mm 0.00 in/hr0.0 mm/hr 0.08 in2.0 mm
09:00 AM 53.2°F11.8°C 53.2°F11.8°C 100% 10.0 mph S16.1 kmh S 15.0 mph24.1 kmh 29.86 in1011.2 mb 0.02 in0.5 mm 0.00 in/hr0.0 mm/hr 0.10 in2.5 mm
10:00 AM 50.7°F10.4°C 50.7°F10.4°C 100% 9.0 mph S14.5 kmh S 15.0 mph24.1 kmh 29.86 in1011.2 mb 0.00 in0.0 mm 0.00 in/hr0.0 mm/hr 0.10 in2.5 mm
11:00 AM 52.5°F11.4°C 52.5°F11.4°C 100% 8.0 mph SW12.9 kmh SW 9.0 mph14.5 kmh 29.86 in1011.2 mb 0.01 in0.3 mm 0.00 in/hr0.0 mm/hr 0.11 in2.8 mm
12:00 PM 54.7°F12.6°C 52.4°F11.3°C 92% 10.0 mph SW16.1 kmh SW 13.0 mph20.9 kmh 29.86 in1011.2 mb 0.00 in0.0 mm 0.00 in/hr0.0 mm/hr 0.11 in2.8 mm
01:00 PM 55.9°F13.3°C 53.0°F11.7°C 90% 12.0 mph SW19.3 kmh SW 18.0 mph29.0 kmh 29.86 in1011.2 mb 0.00 in0.0 mm 0.00 in/hr0.0 mm/hr 0.11 in2.8 mm
02:00 PM 57.0°F13.9°C 53.5°F11.9°C 88% 6.0 mph SW9.7 kmh SW 8.0 mph12.9 kmh 29.88 in1011.9 mb 0.00 in0.0 mm 0.00 in/hr0.0 mm/hr 0.11 in2.8 mm
03:00 PM 58.2°F14.6°C 55.3°F12.9°C 90% 9.0 mph SW14.5 kmh SW 15.0 mph24.1 kmh 29.88 in1011.9 mb 0.00 in0.0 mm 0.00 in/hr0.0 mm/hr 0.11 in2.8 mm
04:00 PM 57.6°F14.2°C 55.0°F12.8°C 91% 9.0 mph SSW14.5 kmh SSW 9.0 mph14.5 kmh 29.88 in1011.9 mb 0.00 in0.0 mm 0.00 in/hr0.0 mm/hr 0.11 in2.8 mm
05:00 PM 50.0°F10.0°C 47.5°F8.6°C 91% 6.0 mph SE9.7 kmh SE 9.0 mph14.5 kmh 29.88 in1011.9 mb 0.00 in0.0 mm 0.00 in/hr0.0 mm/hr 0.11 in2.8 mm
06:00 PM 48.5°F9.2°C 46.6°F8.1°C 93% 3.0 mph E4.8 kmh E 6.0 mph9.7 kmh 29.91 in1012.9 mb 0.00 in0.0 mm 0.00 in/hr0.0 mm/hr 0.11 in2.8 mm
07:00 PM 48.7°F9.3°C 47.9°F8.8°C 97% Calm Calm 5.0 mph8.0 kmh 29.91 in1012.9 mb 0.01 in0.3 mm 0.00 in/hr0.0 mm/hr 0.12 in3.0 mm
08:00 PM 49.5°F9.7°C 48.6°F9.2°C 97% Calm Calm -- 29.94 in1013.9 mb 0.01 in0.3 mm 0.00 in/hr0.0 mm/hr 0.13 in3.3 mm
09:00 PM 46.4°F8.0°C 45.0°F7.2°C 95% 7.0 mph N11.3 kmh N 9.0 mph14.5 kmh 29.97 in1014.9 mb 0.00 in0.0 mm 0.00 in/hr0.0 mm/hr 0.13 in3.3 mm
10:00 PM 41.4°F5.2°C 40.6°F4.8°C 97% 10.0 mph N16.1 kmh N 14.0 mph22.5 kmh 30.00 in1015.9 mb 0.00 in0.0 mm 0.00 in/hr0.0 mm/hr 0.13 in3.3 mm
11:00 PM 39.7°F4.3°C 39.5°F4.2°C 99% 7.0 mph N11.3 kmh N 10.0 mph16.1 kmh 30.00 in1015.9 mb 0.00 in0.0 mm 0.00 in/hr0.0 mm/hr 0.13 in3.3 mm